Time;durP1;ratioP1;P1;durP2;ratioP2;P2;SDS_P1;SDS_P2;PMS_P1;PMS_P2;Temp;Humidity;BMP_temperature;BMP_pressure;BME280_temperature;BME280_humidity;BME280_pressure;Samples;Min_cycle;Max_cycle;Signal;HPM_P1;HPM_P2
2022/08/27 00:02:00;;;;;;;2.63;1.50;;;18.30;99.90;;;;;;5063295;28;20110;-32
2022/08/27 00:04:26;;;;;;;3.17;1.40;;;18.20;99.90;;;;;;5062153;28;20024;-35
2022/08/27 00:06:52;;;;;;;2.25;1.30;;;18.20;99.90;;;;;;5064635;28;20063;-36
2022/08/27 00:09:17;;;;;;;2.88;1.15;;;18.30;99.90;;;;;;5061561;28;20484;-33
2022/08/27 00:11:43;;;;;;;3.30;0.80;;;18.30;99.90;;;;;;5060402;28;20048;-38
2022/08/27 00:14:09;;;;;;;4.43;0.80;;;18.30;99.90;;;;;;5063533;28;20496;-37
2022/08/27 00:16:35;;;;;;;4.90;1.25;;;18.30;99.90;;;;;;5059941;28;20028;-39
2022/08/27 00:19:01;;;;;;;1.73;1.00;;;18.30;99.90;;;;;;5062558;28;20484;-36
2022/08/27 00:21:27;;;;;;;6.57;1.60;;;18.30;99.90;;;;;;5059776;28;20041;-57
2022/08/27 00:26:37;;;;;;;5.93;1.13;;;18.30;99.90;;;;;;5061092;28;20046;-63
2022/08/27 00:29:03;;;;;;;4.57;1.55;;;18.30;99.90;;;;;;5061613;28;20036;-34
2022/08/27 00:31:29;;;;;;;5.03;1.10;;;18.30;99.90;;;;;;5062275;28;20094;-34
2022/08/27 00:33:55;;;;;;;5.68;1.63;;;18.20;99.90;;;;;;5065635;28;20020;-33
2022/08/27 00:36:21;;;;;;;3.03;0.80;;;18.20;99.90;;;;;;5057745;28;20082;-38
2022/08/27 00:38:48;;;;;;;4.65;1.08;;;18.20;99.90;;;;;;5062697;28;20532;-38
2022/08/27 00:41:32;;;;;;;6.75;1.30;;;18.20;99.90;;;;;;5062209;28;20028;-35
2022/08/27 00:44:00;;;;;;;2.75;1.15;;;18.30;99.90;;;;;;5062045;28;20481;-34
2022/08/27 00:46:43;;;;;;;1.08;0.95;;;18.30;99.90;;;;;;5061140;28;20031;-35
2022/08/27 00:49:41;;;;;;;3.72;0.90;;;18.30;99.90;;;;;;5062387;28;20473;-33
2022/08/27 00:52:17;;;;;;;1.02;0.90;;;18.20;99.90;;;;;;5061459;28;20032;-33
2022/08/27 00:54:42;;;;;;;1.92;0.80;;;18.30;99.90;;;;;;5059352;28;20024;-35
2022/08/27 00:57:08;;;;;;;4.22;1.15;;;18.30;99.90;;;;;;5058653;28;20143;-39
2022/08/27 00:59:34;;;;;;;1.13;0.70;;;18.30;99.90;;;;;;5061598;28;20032;-47
2022/08/27 01:02:18;;;;;;;1.45;0.80;;;18.40;99.90;;;;;;5061612;28;20047;-39
2022/08/27 01:04:52;;;;;;;2.13;0.80;;;18.30;99.90;;;;;;5062719;28;20383;-39
2022/08/27 01:07:21;;;;;;;5.28;0.82;;;18.30;99.90;;;;;;5059810;28;20036;-31
2022/08/27 01:09:48;;;;;;;2.75;0.77;;;18.30;99.90;;;;;;5059681;28;20054;-39
2022/08/27 01:12:14;;;;;;;3.58;0.60;;;18.30;99.90;;;;;;5058594;28;20036;-39
2022/08/27 01:14:43;;;;;;;2.50;0.98;;;18.30;99.90;;;;;;5060060;28;20020;-37
2022/08/27 01:17:10;;;;;;;10.32;1.33;;;18.20;99.90;;;;;;5059100;28;20037;-32
2022/08/27 01:19:45;;;;;;;1.67;0.57;;;18.20;99.90;;;;;;5060898;28;20036;-30
2022/08/27 01:22:31;;;;;;;1.95;1.02;;;18.10;99.90;;;;;;5060251;28;20029;-40
2022/08/27 01:25:08;;;;;;;3.07;0.97;;;18.10;99.90;;;;;;5060187;28;20480;-34
2022/08/27 01:27:34;;;;;;;5.32;0.98;;;18.00;99.90;;;;;;5059923;28;20029;-32
2022/08/27 01:30:01;;;;;;;2.30;1.10;;;18.00;99.90;;;;;;5064049;28;20039;-31
2022/08/27 01:32:30;;;;;;;8.70;2.10;;;17.90;99.90;;;;;;5063122;28;20733;-38
2022/08/27 01:34:56;;;;;;;1.55;1.02;;;17.80;99.90;;;;;;5062664;28;20502;-38
2022/08/27 01:37:24;;;;;;;2.25;0.82;;;17.70;99.90;;;;;;5065964;28;20017;-38
2022/08/27 01:39:50;;;;;;;3.28;0.88;;;17.70;99.90;;;;;;5064737;28;20121;-38
2022/08/27 01:42:20;;;;;;;3.35;1.00;;;17.70;99.90;;;;;;5067027;28;20380;-47
2022/08/27 01:44:56;;;;;;;5.45;1.05;;;17.70;99.90;;;;;;5063957;28;20500;-40
2022/08/27 01:47:23;;;;;;;1.65;0.80;;;17.60;99.90;;;;;;5069514;28;20024;-38
2022/08/27 01:49:49;;;;;;;;;;;17.60;99.90;;;;;;5066858;28;20581;-41
2022/08/27 01:52:18;;;;;;;0.80;0.68;;;17.60;99.90;;;;;;5070018;28;20058;-40
2022/08/27 01:54:44;;;;;;;4.68;1.38;;;17.60;99.90;;;;;;5055243;28;20037;-59
2022/08/27 01:57:10;;;;;;;4.40;1.13;;;17.60;99.90;;;;;;5065642;28;20059;-35
2022/08/27 01:59:37;;;;;;;4.82;0.95;;;17.50;99.90;;;;;;5062138;28;20502;-33
2022/08/27 02:02:03;;;;;;;4.38;1.17;;;17.50;99.90;;;;;;5067828;28;20032;-38
2022/08/27 02:04:29;;;;;;;1.00;0.75;;;17.50;99.90;;;;;;5062662;28;20071;-39
2022/08/27 02:06:57;;;;;;;3.13;0.90;;;17.50;99.90;;;;;;5064903;28;20032;-35
2022/08/27 02:09:25;;;;;;;3.67;0.93;;;17.60;99.90;;;;;;5064934;28;20032;-36
2022/08/27 02:11:51;;;;;;;2.67;0.80;;;17.60;99.90;;;;;;5062925;28;20024;-37
2022/08/27 02:14:17;;;;;;;8.77;1.65;;;17.60;99.90;;;;;;5061470;28;20039;-38
2022/08/27 02:16:43;;;;;;;5.90;1.00;;;17.50;99.90;;;;;;5063860;28;20029;-35
2022/08/27 02:19:09;;;;;;;1.08;0.50;;;17.50;99.90;;;;;;5064486;28;20024;-35
2022/08/27 02:21:35;;;;;;;2.75;1.15;;;17.50;99.90;;;;;;5065862;28;20106;-35
2022/08/27 02:24:01;;;;;;;0.95;0.77;;;17.50;99.90;;;;;;5067846;28;20420;-42
2022/08/27 02:26:26;;;;;;;4.10;0.82;;;17.40;99.90;;;;;;5063479;28;20535;-32
2022/08/27 02:28:53;;;;;;;4.28;0.90;;;17.40;99.90;;;;;;5064521;28;20036;-36
2022/08/27 02:31:19;;;;;;;3.67;0.75;;;17.40;99.90;;;;;;5062788;28;20508;-33
2022/08/27 02:33:44;;;;;;;2.58;0.80;;;17.40;99.90;;;;;;5065504;28;20029;-41
2022/08/27 02:36:10;;;;;;;4.13;1.05;;;17.40;99.90;;;;;;5066225;28;20430;-42
2022/08/27 02:41:20;;;;;;;2.03;0.82;;;17.30;99.90;;;;;;5061651;28;20424;-37
2022/08/27 02:43:45;;;;;;;3.67;1.13;;;17.30;99.90;;;;;;5065045;28;20032;-32
2022/08/27 02:46:11;;;;;;;2.83;1.33;;;17.20;99.90;;;;;;5066251;28;20033;-33
2022/08/27 02:48:38;;;;;;;7.65;1.00;;;17.10;99.90;;;;;;5063009;28;21049;-40
2022/08/27 02:51:04;;;;;;;1.00;0.77;;;17.10;99.90;;;;;;5062822;28;20105;-38
2022/08/27 02:53:31;;;;;;;0.68;0.68;;;17.00;99.90;;;;;;5063310;28;20378;-39
2022/08/27 02:55:56;;;;;;;1.10;1.00;;;17.00;99.90;;;;;;5063718;28;20512;-37
2022/08/27 02:58:22;;;;;;;2.95;1.05;;;16.90;99.90;;;;;;5065225;28;21906;-32
2022/08/27 03:00:48;;;;;;;2.22;0.65;;;16.90;99.90;;;;;;5063652;28;20121;-34
2022/08/27 03:03:14;;;;;;;2.55;1.25;;;16.90;99.90;;;;;;5065274;28;20036;-35
2022/08/27 03:05:39;;;;;;;2.00;0.70;;;16.80;99.90;;;;;;5065737;28;20017;-39
2022/08/27 03:08:06;;;;;;;2.08;0.93;;;16.70;99.90;;;;;;5064644;28;20021;-40
2022/08/27 03:10:32;;;;;;;1.92;1.10;;;16.70;99.90;;;;;;5065098;28;20517;-34
2022/08/27 03:12:58;;;;;;;2.83;1.45;;;16.60;99.90;;;;;;5063617;28;20050;-39
2022/08/27 03:15:24;;;;;;;4.75;1.00;;;16.60;99.90;;;;;;5063813;28;20107;-40
2022/08/27 03:20:41;;;;;;;0.98;0.70;;;16.60;99.90;;;;;;5060998;28;20044;-37
2022/08/27 03:23:08;;;;;;;2.83;1.30;;;16.60;99.90;;;;;;5063771;28;20476;-38
2022/08/27 03:25:34;;;;;;;2.60;1.10;;;16.60;99.90;;;;;;5063280;28;20081;-39
2022/08/27 03:28:00;;;;;;;3.90;0.95;;;16.60;99.90;;;;;;5065038;28;20021;-39
2022/08/27 03:30:26;;;;;;;7.13;1.20;;;16.50;99.90;;;;;;5060183;28;20029;-59
2022/08/27 03:32:52;;;;;;;1.65;1.15;;;16.50;99.90;;;;;;5061866;28;20029;-37
2022/08/27 03:35:18;;;;;;;5.00;1.23;;;16.40;99.90;;;;;;5060863;28;20024;-40
2022/08/27 03:37:44;;;;;;;4.60;0.90;;;16.40;99.90;;;;;;5062124;28;20480;-39
2022/08/27 03:40:11;;;;;;;5.78;1.33;;;16.40;99.90;;;;;;5064317;28;21240;-34
2022/08/27 03:42:37;;;;;;;2.40;1.00;;;16.30;99.90;;;;;;5067759;28;20028;-40
2022/08/27 03:45:05;;;;;;;3.50;1.00;;;16.30;99.90;;;;;;5065010;28;20346;-40
2022/08/27 03:47:31;;;;;;;2.20;1.10;;;16.30;99.90;;;;;;5062804;28;20024;-37
2022/08/27 03:49:59;;;;;;;4.25;1.25;;;16.20;99.90;;;;;;5054095;28;20119;-33
2022/08/27 03:52:25;;;;;;;3.47;1.08;;;16.20;99.90;;;;;;5062337;28;20017;-34
2022/08/27 03:54:51;;;;;;;1.13;0.98;;;16.20;99.90;;;;;;5061262;28;20045;-35
2022/08/27 03:57:16;;;;;;;1.58;0.98;;;16.20;99.90;;;;;;5061349;28;20041;-36
2022/08/27 03:59:42;;;;;;;3.47;1.42;;;16.20;99.90;;;;;;5059951;28;20029;-38
2022/08/27 04:02:08;;;;;;;4.55;1.27;;;16.10;99.90;;;;;;5061293;28;20029;-31
2022/08/27 04:04:34;;;;;;;2.22;1.40;;;16.10;99.90;;;;;;5064366;28;20025;-32
2022/08/27 04:07:00;;;;;;;7.57;2.40;;;16.10;99.90;;;;;;5061677;28;20027;-32
2022/08/27 04:09:25;;;;;;;5.00;1.10;;;16.00;99.90;;;;;;5063424;28;20028;-32
2022/08/27 04:11:51;;;;;;;3.03;1.52;;;16.10;99.90;;;;;;5058501;28;20067;-39
2022/08/27 04:14:18;;;;;;;6.13;2.03;;;16.10;99.90;;;;;;5063043;28;20115;-39
2022/08/27 04:16:43;;;;;;;4.70;2.38;;;16.00;99.90;;;;;;5063577;28;20177;-32
2022/08/27 04:19:11;;;;;;;3.13;1.00;;;16.10;99.90;;;;;;5059613;28;20584;-35
2022/08/27 04:21:37;;;;;;;;;;;16.10;99.90;;;;;;5060343;28;21321;-37
2022/08/27 04:24:03;;;;;;;4.22;1.50;;;16.10;99.90;;;;;;5063883;28;20019;-41
2022/08/27 04:26:29;;;;;;;5.22;1.50;;;16.10;99.90;;;;;;5063299;28;20464;-38
2022/08/27 04:28:56;;;;;;;2.03;1.10;;;16.00;99.90;;;;;;5063481;28;20017;-41
2022/08/27 04:31:22;;;;;;;1.67;1.05;;;16.00;99.90;;;;;;5062186;28;20021;-31
2022/08/27 04:33:48;;;;;;;2.88;1.15;;;16.00;99.90;;;;;;5061789;28;20074;-33
2022/08/27 04:36:16;;;;;;;5.18;1.40;;;16.00;99.90;;;;;;5060436;28;20032;-32
2022/08/27 04:38:41;;;;;;;3.13;1.35;;;16.00;99.90;;;;;;5059803;28;20503;-35
2022/08/27 04:41:26;;;;;;;6.28;1.75;;;16.00;99.90;;;;;;5062268;28;20021;-35
2022/08/27 04:43:56;;;;;;;4.60;2.05;;;16.00;99.90;;;;;;5061293;28;20503;-38
2022/08/27 04:46:34;;;;;;;4.05;1.40;;;15.90;99.90;;;;;;5064476;28;20033;-37
2022/08/27 04:49:02;;;;;;;1.98;1.10;;;15.90;99.90;;;;;;5064076;28;20024;-39
2022/08/27 04:51:29;;;;;;;3.45;1.17;;;15.90;99.90;;;;;;5061333;28;20107;-35
2022/08/27 04:53:55;;;;;;;1.97;1.00;;;15.90;99.90;;;;;;5061872;28;20028;-38
2022/08/27 04:56:22;;;;;;;1.83;1.02;;;15.80;99.90;;;;;;5059780;28;20499;-34
2022/08/27 04:58:50;;;;;;;2.78;1.30;;;15.80;99.90;;;;;;5065473;28;20032;-35
2022/08/27 05:01:24;;;;;;;2.10;1.45;;;15.80;99.90;;;;;;5070238;28;20048;-40
2022/08/27 05:03:50;;;;;;;3.13;1.50;;;15.90;99.90;;;;;;5071623;28;20024;-41
2022/08/27 05:06:17;;;;;;;5.88;1.52;;;15.90;99.90;;;;;;5069154;28;20044;-38
2022/08/27 05:08:43;;;;;;;2.10;1.20;;;16.00;99.90;;;;;;5070618;28;20025;-41
2022/08/27 05:11:13;;;;;;;4.13;0.95;;;16.00;99.90;;;;;;5072160;28;20119;-40
2022/08/27 05:13:43;;;;;;;1.98;0.98;;;16.00;99.90;;;;;;5070451;28;20368;-40
2022/08/27 05:16:13;;;;;;;2.65;1.30;;;16.10;99.90;;;;;;5067197;28;20028;-39
2022/08/27 05:18:39;;;;;;;6.00;1.20;;;16.10;99.90;;;;;;5069559;28;20029;-42
2022/08/27 05:21:06;;;;;;;3.38;1.33;;;16.10;99.90;;;;;;5067528;28;20487;-44
2022/08/27 05:23:32;;;;;;;1.48;1.05;;;16.10;99.90;;;;;;5069930;28;20020;-39
2022/08/27 05:25:58;;;;;;;5.38;1.20;;;16.10;99.90;;;;;;5067852;28;20468;-39
2022/08/27 05:28:26;;;;;;;4.47;1.27;;;16.20;99.90;;;;;;5067891;28;20834;-37
2022/08/27 05:30:53;;;;;;;;;;;16.30;99.90;;;;;;5064955;28;20492;-38
2022/08/27 05:33:21;;;;;;;1.92;1.23;;;16.30;99.90;;;;;;5070222;28;19908;-40
2022/08/27 05:35:50;;;;;;;1.70;1.35;;;16.40;99.90;;;;;;5067252;28;20397;-34
2022/08/27 05:38:34;;;;;;;2.63;1.35;;;16.40;99.90;;;;;;5067530;28;20040;-40
2022/08/27 05:41:09;;;;;;;4.68;1.65;;;16.40;99.90;;;;;;5068975;28;20548;-41
2022/08/27 05:43:36;;;;;;;5.18;1.90;;;16.50;99.90;;;;;;5071507;28;20040;-38
2022/08/27 05:46:11;;;;;;;5.18;1.88;;;16.50;99.90;;;;;;5068217;28;20071;-41
2022/08/27 05:48:38;;;;;;;3.88;1.95;;;16.60;99.90;;;;;;5069961;28;20028;-40
2022/08/27 05:51:20;;;;;;;5.20;1.95;;;16.70;99.90;;;;;;5069928;28;20031;-42
2022/08/27 05:53:46;;;;;;;5.88;2.08;;;16.70;99.90;;;;;;5069091;28;20549;-40
2022/08/27 05:56:18;;;;;;;5.72;1.55;;;16.80;99.90;;;;;;5065135;28;20106;-39
2022/08/27 06:01:31;;;;;;;10.02;2.05;;;17.00;99.90;;;;;;5063432;28;20048;-37
2022/08/27 06:03:57;;;;;;;;;;;17.00;99.90;;;;;;5069198;28;20448;-33
2022/08/27 06:06:22;;;;;;;3.13;1.65;;;17.10;99.90;;;;;;5066630;28;19999;-32
2022/08/27 06:08:50;;;;;;;4.97;2.05;;;17.10;99.90;;;;;;5063927;28;20443;-41
2022/08/27 06:11:18;;;;;;;2.70;1.33;;;17.20;99.90;;;;;;5065219;28;20077;-33
2022/08/27 06:13:45;;;;;;;3.70;1.60;;;17.30;99.90;;;;;;5066123;28;20476;-32
2022/08/27 06:16:13;;;;;;;3.38;1.40;;;17.30;99.90;;;;;;5063598;28;20477;-50
2022/08/27 06:18:40;;;;;;;2.47;1.02;;;17.40;99.90;;;;;;5064809;28;20502;-52
2022/08/27 06:21:06;;;;;;;5.80;1.35;;;17.40;99.90;;;;;;5061384;28;20029;-34
2022/08/27 06:23:33;;;;;;;3.47;1.30;;;17.50;99.90;;;;;;5063718;28;20484;-33
2022/08/27 06:25:59;;;;;;;2.53;1.30;;;17.60;99.90;;;;;;5061319;28;20159;-40
2022/08/27 06:28:28;;;;;;;2.05;1.05;;;17.70;99.90;;;;;;5063960;28;20536;-31
2022/08/27 06:31:09;;;;;;;7.90;1.48;;;17.80;99.90;;;;;;5066069;28;20032;-40
2022/08/27 06:33:35;;;;;;;6.05;1.40;;;17.80;99.90;;;;;;5062312;28;20509;-31
2022/08/27 06:36:04;;;;;;;3.40;1.98;;;17.90;99.90;;;;;;5063429;28;20452;-39
2022/08/27 06:38:30;;;;;;;2.85;1.50;;;18.00;99.90;;;;;;5066916;28;20029;-37
2022/08/27 06:40:57;;;;;;;6.07;1.65;;;18.00;99.90;;;;;;5062450;28;20060;-41
2022/08/27 06:43:23;;;;;;;1.85;1.70;;;18.10;99.90;;;;;;5067634;28;20052;-40
2022/08/27 06:45:49;;;;;;;3.42;1.25;;;18.10;99.90;;;;;;5062602;28;20020;-39
2022/08/27 06:48:15;;;;;;;4.13;1.70;;;18.10;99.90;;;;;;5065880;28;20771;-36
2022/08/27 06:50:41;;;;;;;2.30;1.35;;;18.10;99.90;;;;;;5064213;28;20024;-39
2022/08/27 06:53:07;;;;;;;2.67;1.30;;;18.10;99.90;;;;;;5064172;28;20025;-39
2022/08/27 06:55:43;;;;;;;7.40;1.58;;;18.20;99.90;;;;;;5065009;28;20486;-39
2022/08/27 06:58:09;;;;;;;10.02;1.67;;;18.30;99.90;;;;;;5061737;28;20071;-39
2022/08/27 07:00:35;;;;;;;11.45;1.52;;;18.30;99.90;;;;;;5061706;28;20056;-40
2022/08/27 07:03:04;;;;;;;2.63;1.27;;;18.40;99.90;;;;;;5063783;28;20024;-38
2022/08/27 07:05:30;;;;;;;7.32;2.00;;;18.40;99.90;;;;;;5064907;28;20029;-38
2022/08/27 07:07:56;;;;;;;8.83;1.93;;;18.50;99.90;;;;;;5063337;28;20029;-40
2022/08/27 07:10:23;;;;;;;1.30;0.90;;;18.60;99.90;;;;;;5063097;28;20498;-40
2022/08/27 07:12:49;;;;;;;4.77;1.60;;;18.60;99.90;;;;;;5062097;28;20024;-37
2022/08/27 07:15:15;;;;;;;4.60;1.50;;;18.70;99.90;;;;;;5064870;28;20090;-37
2022/08/27 07:17:43;;;;;;;6.53;1.50;;;18.70;99.90;;;;;;5062494;28;20291;-43
2022/08/27 07:20:09;;;;;;;6.78;1.40;;;18.70;99.90;;;;;;5061257;28;20090;-40
2022/08/27 07:22:35;;;;;;;7.97;1.33;;;18.70;99.90;;;;;;5066763;28;20025;-58
2022/08/27 07:25:01;;;;;;;4.05;1.40;;;18.80;99.90;;;;;;5063496;28;20028;-35
2022/08/27 07:27:26;;;;;;;3.00;1.55;;;18.90;99.90;;;;;;5062116;28;20017;-38
2022/08/27 07:29:52;;;;;;;4.57;1.65;;;19.20;99.90;;;;;;5064729;28;20024;-41
2022/08/27 07:32:17;;;;;;;8.48;1.73;;;19.40;99.90;;;;;;5064552;28;20028;-39
2022/08/27 07:34:43;;;;;;;4.95;1.20;;;19.50;99.90;;;;;;5065997;28;20028;-39
2022/08/27 07:37:09;;;;;;;2.90;1.42;;;19.70;99.90;;;;;;5061648;28;20133;-37
2022/08/27 07:39:34;;;;;;;3.10;1.25;;;19.80;99.90;;;;;;5062231;28;20021;-39
2022/08/27 07:44:44;;;;;;;3.25;1.33;;;20.20;99.90;;;;;;5063384;28;20414;-41
2022/08/27 07:47:10;;;;;;;4.72;1.73;;;20.30;99.90;;;;;;5061106;28;20021;-39
2022/08/27 07:49:36;;;;;;;5.40;1.80;;;20.40;99.90;;;;;;5064486;28;20799;-37
2022/08/27 07:52:02;;;;;;;6.35;1.90;;;20.60;99.90;;;;;;5064718;28;20024;-43
2022/08/27 07:54:28;;;;;;;3.47;1.48;;;20.70;99.90;;;;;;5061516;28;20078;-46
2022/08/27 07:56:54;;;;;;;4.85;1.52;;;20.60;99.90;;;;;;5056184;28;20557;-38
2022/08/27 07:59:20;;;;;;;8.98;2.03;;;20.50;99.90;;;;;;5063473;28;20514;-39
2022/08/27 08:01:47;;;;;;;4.57;1.42;;;20.40;99.90;;;;;;5064822;28;20035;-40
2022/08/27 08:04:13;;;;;;;6.88;1.67;;;20.20;99.90;;;;;;5064271;28;20424;-39
2022/08/27 08:06:39;;;;;;;2.38;1.13;;;20.10;99.90;;;;;;5063343;28;20032;-42
2022/08/27 08:09:05;;;;;;;2.53;1.90;;;20.00;99.90;;;;;;5065871;28;20249;-40
2022/08/27 08:11:32;;;;;;;5.28;1.13;;;19.90;99.90;;;;;;5059638;28;20477;-38
2022/08/27 08:13:59;;;;;;;5.53;1.40;;;19.80;99.90;;;;;;5065670;28;20459;-39
2022/08/27 08:16:25;;;;;;;4.43;1.58;;;19.90;99.90;;;;;;5061353;28;20017;-41
2022/08/27 08:18:51;;;;;;;2.78;1.30;;;19.80;99.90;;;;;;5057582;28;20027;-41
2022/08/27 08:21:16;;;;;;;3.72;1.40;;;19.80;99.90;;;;;;5063426;28;20040;-36
2022/08/27 08:23:43;;;;;;;2.05;0.90;;;19.80;99.90;;;;;;5058169;28;20021;-37
2022/08/27 08:26:11;;;;;;;4.45;1.45;;;19.80;99.90;;;;;;5060074;28;20117;-43
2022/08/27 08:28:38;;;;;;;2.08;1.55;;;19.80;99.90;;;;;;5064353;28;20051;-39
2022/08/27 08:31:04;;;;;;;3.58;1.52;;;19.80;99.90;;;;;;5063180;28;20029;-35
2022/08/27 08:33:30;;;;;;;9.57;1.70;;;19.80;99.90;;;;;;5061722;28;20036;-37
2022/08/27 08:36:02;;;;;;;2.75;1.73;;;19.70;99.90;;;;;;5059150;28;20025;-41
2022/08/27 08:38:28;;;;;;;2.38;1.38;;;19.70;99.90;;;;;;5064878;28;20484;-45
2022/08/27 08:40:54;;;;;;;1.92;1.63;;;19.70;99.90;;;;;;5065434;28;20028;-39
2022/08/27 08:43:22;;;;;;;3.50;1.38;;;19.70;99.90;;;;;;5062047;28;20020;-41
2022/08/27 08:45:49;;;;;;;2.10;1.00;;;19.70;99.90;;;;;;5063538;28;20528;-39
2022/08/27 08:48:19;;;;;;;2.92;1.50;;;19.70;99.90;;;;;;5060802;28;20501;-38
2022/08/27 08:50:57;;;;;;;3.65;1.05;;;19.60;99.90;;;;;;5062194;28;20031;-40
2022/08/27 08:53:39;;;;;;;3.45;0.93;;;19.70;99.90;;;;;;5060787;28;20039;-41
2022/08/27 08:56:12;;;;;;;2.72;0.95;;;19.70;99.90;;;;;;5063460;28;20457;-37
2022/08/27 08:58:55;;;;;;;5.07;1.30;;;19.60;99.90;;;;;;5064057;28;20041;-37
2022/08/27 09:01:21;;;;;;;2.75;1.23;;;19.70;99.90;;;;;;5062203;28;21339;-35
2022/08/27 09:03:56;;;;;;;2.33;1.13;;;19.60;99.90;;;;;;5064373;28;20025;-36
2022/08/27 09:06:33;;;;;;;1.92;1.13;;;19.60;99.90;;;;;;5062341;28;20025;-38
2022/08/27 09:09:19;;;;;;;6.07;1.63;;;19.60;99.90;;;;;;5059316;28;20020;-40
2022/08/27 09:11:58;;;;;;;2.70;1.13;;;19.60;99.90;;;;;;5059764;28;20029;-39
2022/08/27 09:14:39;;;;;;;5.35;1.08;;;19.60;99.90;;;;;;5062719;28;20120;-39
2022/08/27 09:17:07;;;;;;;6.18;1.00;;;19.60;99.90;;;;;;5063265;28;20028;-37
2022/08/27 09:19:33;;;;;;;2.63;0.93;;;19.60;99.90;;;;;;5059817;28;20426;-36
2022/08/27 09:22:17;;;;;;;2.47;0.90;;;19.70;99.90;;;;;;5063754;28;20085;-41
2022/08/27 09:25:06;;;;;;;4.25;1.13;;;19.90;99.90;;;;;;5056587;28;20036;-38
2022/08/27 09:27:34;;;;;;;5.68;1.30;;;20.00;99.90;;;;;;5062695;28;20444;-41
2022/08/27 09:30:06;;;;;;;3.30;0.90;;;20.10;99.90;;;;;;5063012;28;20113;-34
2022/08/27 09:32:33;;;;;;;3.88;0.77;;;20.20;99.90;;;;;;5060608;28;20047;-39
2022/08/27 09:35:03;;;;;;;2.90;1.20;;;20.20;99.90;;;;;;5061588;28;20029;-37
2022/08/27 09:37:31;;;;;;;4.40;1.02;;;20.20;99.90;;;;;;5064720;28;20491;-43
2022/08/27 09:40:08;;;;;;;8.90;0.90;;;20.20;99.90;;;;;;5060647;28;20025;-36
2022/08/27 09:42:43;;;;;;;3.75;0.82;;;20.20;99.90;;;;;;5058656;28;20036;-41
2022/08/27 09:45:17;;;;;;;2.55;0.77;;;20.20;99.90;;;;;;5060899;28;20025;-38
2022/08/27 09:48:12;;;;;;;1.33;0.85;;;20.20;99.90;;;;;;5064061;28;20036;-41
2022/08/27 09:50:49;;;;;;;12.05;3.38;;;20.20;99.90;;;;;;5061009;28;20422;-42
2022/08/27 09:53:25;;;;;;;1.30;1.15;;;20.20;99.90;;;;;;5063989;28;20037;-39
2022/08/27 09:56:00;;;;;;;7.35;1.10;;;20.20;99.90;;;;;;5066063;28;20028;-36
2022/08/27 09:58:33;;;;;;;2.10;1.10;;;20.20;99.90;;;;;;5065111;28;20044;-39
2022/08/27 10:01:17;;;;;;;2.75;1.33;;;20.10;99.90;;;;;;5066855;28;20131;-36
2022/08/27 10:03:42;;;;;;;2.28;1.15;;;20.20;99.90;;;;;;5060445;28;20041;-41
2022/08/27 10:06:10;;;;;;;13.13;1.55;;;20.20;99.90;;;;;;5062246;28;20027;-39
2022/08/27 10:08:51;;;;;;;4.35;1.65;;;20.20;99.90;;;;;;5067109;28;20496;-37
2022/08/27 10:11:27;;;;;;;3.58;1.20;;;20.20;99.90;;;;;;5065217;28;20032;-39
2022/08/27 10:14:04;;;;;;;7.05;1.17;;;20.30;99.90;;;;;;5064880;28;20029;-38
2022/08/27 10:16:46;;;;;;;2.35;0.85;;;20.50;99.90;;;;;;5062424;28;20040;-38
2022/08/27 10:19:17;;;;;;;1.98;1.17;;;20.70;99.90;;;;;;5065239;28;20515;-38
2022/08/27 10:22:06;;;;;;;8.60;2.42;;;20.90;99.90;;;;;;5066508;28;20031;-38
2022/08/27 10:24:51;;;;;;;6.47;1.42;;;20.90;99.90;;;;;;5062287;28;20029;-40
2022/08/27 10:27:21;;;;;;;6.25;1.38;;;21.00;99.90;;;;;;5059928;28;20056;-39
2022/08/27 10:30:04;;;;;;;12.05;2.38;;;21.00;99.90;;;;;;5061493;28;20372;-42
2022/08/27 10:32:39;;;;;;;1.75;1.10;;;21.00;99.90;;;;;;5066023;28;20431;-38
2022/08/27 10:35:22;;;;;;;5.28;0.90;;;21.00;99.90;;;;;;5063276;28;20512;-45
2022/08/27 10:38:07;;;;;;;6.78;1.40;;;21.20;99.90;;;;;;5065259;28;21696;-38
2022/08/27 10:40:50;;;;;;;5.95;1.00;;;21.30;99.90;;;;;;5063232;28;20033;-44
2022/08/27 10:43:31;;;;;;;4.72;0.82;;;21.40;99.90;;;;;;5064340;28;20477;-42
2022/08/27 10:46:03;;;;;;;7.63;1.80;;;21.20;99.90;;;;;;5063171;28;20472;-41
2022/08/27 10:48:36;;;;;;;2.78;0.88;;;21.10;99.90;;;;;;5066035;28;20032;-38
2022/08/27 10:51:40;;;;;;;4.65;0.95;;;20.90;99.90;;;;;;5064752;28;20519;-41
2022/08/27 10:54:18;;;;;;;2.67;0.65;;;20.80;99.90;;;;;;5043085;28;20476;-44
2022/08/27 10:57:06;;;;;;;5.47;1.08;;;20.70;99.90;;;;;;5061639;28;20519;-35
2022/08/27 10:59:38;;;;;;;1.13;0.73;;;20.70;99.90;;;;;;5060128;28;20048;-38
2022/08/27 11:02:34;;;;;;;8.82;1.10;;;20.60;99.90;;;;;;5062590;28;20025;-41
2022/08/27 11:05:13;;;;;;;1.40;0.47;;;20.60;99.90;;;;;;5060704;28;20105;-39
2022/08/27 11:07:44;;;;;;;4.05;0.90;;;20.60;99.90;;;;;;5064398;28;20369;-39
2022/08/27 11:10:31;;;;;;;2.15;1.00;;;20.70;99.90;;;;;;5065067;28;20377;-39
2022/08/27 11:15:50;;;;;;;1.60;0.82;;;20.90;99.90;;;;;;5066790;28;20047;-33
2022/08/27 11:18:31;;;;;;;1.83;0.63;;;20.90;99.90;;;;;;5059319;28;20095;-32
2022/08/27 11:20:59;;;;;;;2.85;0.80;;;21.10;99.90;;;;;;5063056;28;20472;-31
2022/08/27 11:23:39;;;;;;;2.08;1.00;;;21.20;99.90;;;;;;5063351;28;20886;-41
2022/08/27 11:26:05;;;;;;;2.67;0.75;;;21.20;99.90;;;;;;5077979;28;20101;-35
2022/08/27 11:28:44;;;;;;;20.17;1.05;;;21.20;99.90;;;;;;5063534;28;20032;-37
2022/08/27 11:31:29;;;;;;;1.48;0.63;;;21.10;99.90;;;;;;5063402;28;20063;-36
2022/08/27 11:34:12;;;;;;;2.55;1.10;;;21.10;99.90;;;;;;5056580;28;20468;-36
2022/08/27 11:37:09;;;;;;;2.50;0.77;;;21.20;99.90;;;;;;5058040;28;20473;-31
2022/08/27 11:40:09;;;;;;;3.47;0.88;;;21.30;99.90;;;;;;5056514;28;20036;-43
2022/08/27 11:42:48;;;;;;;3.75;1.02;;;21.60;99.90;;;;;;5051041;28;20024;-40
2022/08/27 11:45:23;;;;;;;5.15;1.00;;;21.80;99.90;;;;;;5053870;28;20033;-32
2022/08/27 11:47:55;;;;;;;5.55;1.40;;;21.70;99.90;;;;;;5049348;28;20422;-48
2022/08/27 11:50:22;;;;;;;5.63;0.95;;;21.60;99.90;;;;;;5047122;28;20056;-39
2022/08/27 11:53:02;;;;;;;5.00;1.27;;;21.60;99.90;;;;;;5055454;28;20029;-32
2022/08/27 11:55:35;;;;;;;1.90;0.82;;;21.70;99.90;;;;;;5057704;28;20111;-32
2022/08/27 11:58:06;;;;;;;2.00;0.98;;;22.00;99.90;;;;;;5062127;28;20040;-57
2022/08/27 12:00:36;;;;;;;7.88;1.20;;;22.10;99.90;;;;;;5061002;28;20036;-38
2022/08/27 12:03:08;;;;;;;2.63;0.68;;;21.90;99.90;;;;;;5076945;28;20090;-37
2022/08/27 12:05:47;;;;;;;1.55;0.80;;;22.00;99.90;;;;;;5064333;28;20020;-35
2022/08/27 12:08:21;;;;;;;3.22;0.85;;;22.10;99.90;;;;;;5059994;28;20039;-34
2022/08/27 12:11:20;;;;;;;3.13;0.85;;;22.10;99.90;;;;;;5050005;28;20425;-39
2022/08/27 12:14:15;;;;;;;4.22;0.90;;;22.20;99.90;;;;;;5050350;28;20036;-32
2022/08/27 12:17:09;;;;;;;10.07;1.13;;;22.20;99.90;;;;;;5017365;28;20045;-33
2022/08/27 12:19:47;;;;;;;2.58;0.80;;;22.10;99.90;;;;;;5046972;28;20386;-30
2022/08/27 12:23:38;;;;;;;2.33;0.95;;;22.20;99.90;;;;;;5047410;28;20048;-38
2022/08/27 12:25:21;;;;;;;5.45;1.08;;;22.40;99.90;;;;;;5050665;28;20035;-32
2022/08/27 12:28:03;;;;;;;2.05;0.52;;;22.70;99.90;;;;;;5049330;28;20945;-31
2022/08/27 12:30:36;;;;;;;5.45;1.13;;;22.90;99.90;;;;;;5050140;28;20016;-35
2022/08/27 12:33:21;;;;;;;2.38;0.85;;;22.90;99.90;;;;;;5045038;28;20229;-33
2022/08/27 12:35:50;;;;;;;2.35;0.80;;;22.90;99.90;;;;;;5044761;28;20024;-35
2022/08/27 12:38:16;;;;;;;4.32;0.65;;;22.90;99.90;;;;;;5051688;28;20020;-31
2022/08/27 12:41:07;;;;;;;3.25;1.13;;;22.60;99.90;;;;;;5051113;28;20025;-36
2022/08/27 12:43:36;;;;;;;2.85;1.65;;;22.50;99.90;;;;;;5079506;28;20491;-32
2022/08/27 12:46:05;;;;;;;0.82;0.43;;;22.20;99.90;;;;;;5074950;28;20487;-32
2022/08/27 12:48:45;;;;;;;3.88;0.80;;;22.20;99.90;;;;;;5077792;28;20621;-37
2022/08/27 12:51:24;;;;;;;1.75;0.80;;;22.20;99.90;;;;;;5078320;28;20428;-33
2022/08/27 12:54:24;;;;;;;3.67;0.93;;;22.40;99.90;;;;;;5077222;28;20093;-31
2022/08/27 12:57:16;;;;;;;1.23;0.85;;;22.50;99.90;;;;;;5076130;28;20618;-31
2022/08/27 13:00:14;;;;;;;1.70;0.77;;;22.50;99.90;;;;;;5080777;28;20035;-43
2022/08/27 13:03:14;;;;;;;1.70;0.80;;;22.50;99.90;;;;;;5078373;28;20052;-40
2022/08/27 13:05:44;;;;;;;1.88;0.90;;;22.40;99.90;;;;;;5076962;28;20414;-31
2022/08/27 13:08:31;;;;;;;6.55;1.10;;;22.20;99.90;;;;;;5076487;28;20754;-32
2022/08/27 13:11:08;;;;;;;4.00;0.93;;;22.00;99.90;;;;;;5073630;28;20039;-31
2022/08/27 13:13:35;;;;;;;1.13;0.60;;;21.90;99.90;;;;;;5076241;28;20030;-34
2022/08/27 13:16:02;;;;;;;;;;;21.90;99.90;;;;;;5062463;28;20495;-33
2022/08/27 13:18:28;;;;;;;5.27;1.03;;;22.00;99.90;;;;;;5062736;28;19915;-33
2022/08/27 13:21:08;;;;;;;3.25;1.00;;;22.10;99.90;;;;;;5062920;28;20077;-40
2022/08/27 13:23:34;;;;;;;4.18;0.80;;;22.10;99.90;;;;;;5068625;28;20484;-37
2022/08/27 13:26:09;;;;;;;4.07;0.82;;;22.10;99.90;;;;;;5060853;28;20070;-37